Time;durP1;ratioP1;P1;durP2;ratioP2;P2;SDS_P1;SDS_P2;PMS_P1;PMS_P2;Temp;Humidity;BMP_temperature;BMP_pressure;BME280_temperature;BME280_humidity;BME280_pressure;Samples;Min_cycle;Max_cycle;Signal;HPM_P1;HPM_P2
2023/08/23 00:02:13;;;;;;;16.00;14.33;;;;;;;;;;747608;188;915920;-59
2023/08/23 00:04:39;;;;;;;19.33;14.37;;;;;;;;;;743726;187;918128;-66
2023/08/23 00:07:05;;;;;;;21.40;15.00;;;;;;;;;;743181;187;915925;-65
2023/08/23 00:09:31;;;;;;;20.37;15.77;;;;;;;;;;747717;187;919481;-60
2023/08/23 00:11:57;;;;;;;18.53;15.97;;;;;;;;;;737176;188;920243;-60
2023/08/23 00:14:23;;;;;;;24.60;16.90;;;;;;;;;;745708;188;913765;-59
2023/08/23 00:16:49;;;;;;;22.17;16.00;;;;;;;;;;746715;187;916111;-61
2023/08/23 00:19:14;;;;;;;18.73;16.77;;;;;;;;;;749161;183;916365;-65
2023/08/23 00:21:40;;;;;;;21.23;16.40;;;;;;;;;;741738;188;922653;-60
2023/08/23 00:24:06;;;;;;;19.50;17.03;;;;;;;;;;739234;188;918488;-65
2023/08/23 00:26:32;;;;;;;21.43;17.50;;;;;;;;;;744372;188;919406;-67
2023/08/23 00:28:58;;;;;;;30.12;16.58;;;;;;;;;;738204;188;922669;-60
2023/08/23 00:31:24;;;;;;;19.43;16.60;;;;;;;;;;738009;188;920701;-60
2023/08/23 00:33:49;;;;;;;18.77;16.77;;;;;;;;;;747138;188;919614;-66
2023/08/23 00:36:15;;;;;;;21.50;17.23;;;;;;;;;;737842;189;918697;-65
2023/08/23 00:38:41;;;;;;;21.83;16.90;;;;;;;;;;736934;187;918783;-60
2023/08/23 00:41:07;;;;;;;18.73;16.33;;;;;;;;;;748268;187;919433;-66
2023/08/23 00:43:33;;;;;;;23.53;17.17;;;;;;;;;;743878;187;919131;-60
2023/08/23 00:45:59;;;;;;;22.63;18.20;;;;;;;;;;743626;187;918987;-59
2023/08/23 00:48:25;;;;;;;22.40;16.77;;;;;;;;;;743811;187;921737;-61
2023/08/23 00:50:50;;;;;;;19.87;16.50;;;;;;;;;;744158;187;915827;-59
2023/08/23 00:53:16;;;;;;;20.27;17.47;;;;;;;;;;743033;187;921325;-67
2023/08/23 00:55:42;;;;;;;27.70;21.50;;;;;;;;;;738908;188;820456;-61
2023/08/23 00:58:08;;;;;;;25.13;21.30;;;;;;;;;;749782;187;920234;-60
2023/08/23 01:00:34;;;;;;;27.93;21.27;;;;;;;;;;745314;187;921343;-61
2023/08/23 01:03:00;;;;;;;29.30;21.33;;;;;;;;;;739181;187;920539;-60
2023/08/23 01:05:28;;;;;;;32.97;23.00;;;;;;;;;;749205;187;816153;-66
2023/08/23 01:07:56;;;;;;;25.03;22.37;;;;;;;;;;741953;188;918207;-61
2023/08/23 01:10:22;;;;;;;30.23;24.70;;;;;;;;;;743210;188;938261;-66
2023/08/23 01:12:49;;;;;;;29.03;23.87;;;;;;;;;;736476;189;919642;-67
2023/08/23 01:15:14;;;;;;;31.50;24.50;;;;;;;;;;748162;187;916808;-67
2023/08/23 01:17:42;;;;;;;33.20;23.67;;;;;;;;;;740834;188;918992;-66
2023/08/23 01:20:07;;;;;;;25.30;21.97;;;;;;;;;;743455;187;918846;-66
2023/08/23 01:22:32;;;;;;;26.03;20.30;;;;;;;;;;742978;188;867776;-69
2023/08/23 01:24:58;;;;;;;22.70;19.90;;;;;;;;;;736908;189;920147;-66
2023/08/23 01:27:24;;;;;;;32.33;20.53;;;;;;;;;;743178;187;917190;-67
2023/08/23 01:29:50;;;;;;;28.03;20.07;;;;;;;;;;744690;188;915785;-61
2023/08/23 01:32:34;;;;;;;25.90;21.50;;;;;;;;;;736004;189;910859;-60
2023/08/23 01:35:02;;;;;;;27.30;20.10;;;;;;;;;;745589;187;915575;-60
2023/08/23 01:37:28;;;;;;;24.43;20.43;;;;;;;;;;743095;187;917679;-61
2023/08/23 01:39:54;;;;;;;23.77;19.57;;;;;;;;;;739565;187;918473;-61
2023/08/23 01:42:20;;;;;;;28.83;19.93;;;;;;;;;;743708;187;815764;-66
2023/08/23 01:44:46;;;;;;;25.10;19.47;;;;;;;;;;742624;187;919332;-66
2023/08/23 01:47:11;;;;;;;22.17;18.10;;;;;;;;;;743930;187;919487;-66
2023/08/23 01:49:37;;;;;;;21.93;19.53;;;;;;;;;;743424;186;854538;-67
2023/08/23 01:52:03;;;;;;;25.00;19.20;;;;;;;;;;740434;187;918706;-68
2023/08/23 01:54:29;;;;;;;26.42;19.33;;;;;;;;;;744203;187;920875;-61
2023/08/23 01:56:55;;;;;;;24.75;19.17;;;;;;;;;;740624;187;920441;-60
2023/08/23 01:59:21;;;;;;;22.37;18.67;;;;;;;;;;734047;189;919225;-61
2023/08/23 02:01:47;;;;;;;20.10;17.93;;;;;;;;;;738208;188;919196;-59
2023/08/23 02:04:13;;;;;;;24.47;19.07;;;;;;;;;;740848;189;918974;-66
2023/08/23 02:06:38;;;;;;;23.60;17.83;;;;;;;;;;741385;188;918908;-66
2023/08/23 02:09:04;;;;;;;31.67;18.53;;;;;;;;;;738680;186;918977;-61
2023/08/23 02:11:32;;;;;;;29.03;20.47;;;;;;;;;;745967;187;918977;-66
2023/08/23 02:13:56;;;;;;;28.27;20.48;;;;;;;;;;744316;187;917416;-60
2023/08/23 02:16:22;;;;;;;25.90;19.60;;;;;;;;;;740661;187;919519;-61
2023/08/23 02:18:48;;;;;;;23.60;18.90;;;;;;;;;;742206;187;918369;-66
2023/08/23 02:21:14;;;;;;;26.60;20.27;;;;;;;;;;744224;188;918690;-65
2023/08/23 02:23:39;;;;;;;23.90;19.50;;;;;;;;;;745700;188;917393;-66
2023/08/23 02:26:05;;;;;;;23.37;19.57;;;;;;;;;;744154;188;919657;-59
2023/08/23 02:28:31;;;;;;;25.20;18.40;;;;;;;;;;742691;189;919991;-62
2023/08/23 02:31:01;;;;;;;33.80;18.70;;;;;;;;;;749262;187;919431;-60
2023/08/23 02:33:27;;;;;;;27.90;18.50;;;;;;;;;;739609;187;919145;-60
2023/08/23 02:35:52;;;;;;;23.97;20.47;;;;;;;;;;738611;187;938256;-59
2023/08/23 02:38:18;;;;;;;30.63;17.87;;;;;;;;;;748570;187;816117;-61
2023/08/23 02:40:44;;;;;;;23.13;17.77;;;;;;;;;;741971;187;817129;-66
2023/08/23 02:43:10;;;;;;;29.97;20.50;;;;;;;;;;743137;186;938905;-60
2023/08/23 02:45:38;;;;;;;24.42;19.02;;;;;;;;;;743317;188;817564;-66
2023/08/23 02:48:04;;;;;;;20.43;17.43;;;;;;;;;;735849;190;915336;-59
2023/08/23 02:50:30;;;;;;;23.23;18.03;;;;;;;;;;739312;187;919305;-66
2023/08/23 02:52:56;;;;;;;24.17;18.27;;;;;;;;;;736697;188;919169;-66
2023/08/23 02:55:22;;;;;;;18.93;17.03;;;;;;;;;;745495;187;913775;-60
2023/08/23 02:57:47;;;;;;;21.73;16.57;;;;;;;;;;739162;188;920089;-66
2023/08/23 03:00:14;;;;;;;18.93;16.87;;;;;;;;;;736972;188;928340;-66
2023/08/23 03:02:39;;;;;;;19.03;16.97;;;;;;;;;;739637;187;914752;-62
2023/08/23 03:05:06;;;;;;;21.73;16.50;;;;;;;;;;741807;187;909599;-66
2023/08/23 03:07:32;;;;;;;25.00;17.27;;;;;;;;;;740190;188;919128;-61
2023/08/23 03:09:58;;;;;;;19.70;15.80;;;;;;;;;;743406;187;918319;-61
2023/08/23 03:12:23;;;;;;;15.20;13.60;;;;;;;;;;738219;189;919102;-60
2023/08/23 03:14:49;;;;;;;19.20;14.90;;;;;;;;;;740562;188;916068;-60
2023/08/23 03:17:15;;;;;;;19.70;16.00;;;;;;;;;;742371;187;921830;-66
2023/08/23 03:19:41;;;;;;;20.07;16.00;;;;;;;;;;742617;188;816880;-67
2023/08/23 03:22:07;;;;;;;19.40;15.20;;;;;;;;;;739308;187;920601;-66
2023/08/23 03:24:33;;;;;;;22.70;15.27;;;;;;;;;;746489;187;919171;-66
2023/08/23 03:26:58;;;;;;;19.20;14.75;;;;;;;;;;753504;187;621628;-60
2023/08/23 03:29:24;;;;;;;17.03;14.97;;;;;;;;;;741702;188;917929;-65
2023/08/23 03:31:50;;;;;;;19.07;15.53;;;;;;;;;;742783;186;930535;-60
2023/08/23 03:34:16;;;;;;;18.80;14.60;;;;;;;;;;747147;187;931136;-59
2023/08/23 03:36:42;;;;;;;17.60;14.73;;;;;;;;;;740243;187;919667;-65
2023/08/23 03:39:08;;;;;;;23.80;14.40;;;;;;;;;;730416;191;919508;-59
2023/08/23 03:41:34;;;;;;;18.50;15.50;;;;;;;;;;738392;187;917083;-65
2023/08/23 03:43:59;;;;;;;17.80;15.80;;;;;;;;;;747912;187;916644;-61
2023/08/23 03:46:25;;;;;;;23.73;16.23;;;;;;;;;;741041;188;918654;-60
2023/08/23 03:48:51;;;;;;;22.27;17.53;;;;;;;;;;744966;188;817172;-66
2023/08/23 03:51:17;;;;;;;24.17;16.67;;;;;;;;;;747823;187;820037;-60
2023/08/23 03:53:43;;;;;;;18.27;15.20;;;;;;;;;;741202;188;916175;-60
2023/08/23 03:56:09;;;;;;;19.27;15.67;;;;;;;;;;743184;188;909892;-60
2023/08/23 03:58:35;;;;;;;29.50;18.10;;;;;;;;;;746799;187;915845;-66
2023/08/23 04:01:00;;;;;;;20.00;14.90;;;;;;;;;;745069;187;920390;-59
2023/08/23 04:03:26;;;;;;;19.83;15.80;;;;;;;;;;741594;188;918035;-65
2023/08/23 04:05:52;;;;;;;24.33;16.37;;;;;;;;;;739520;188;919208;-61
2023/08/23 04:08:18;;;;;;;19.43;16.00;;;;;;;;;;746279;188;817373;-59
2023/08/23 04:10:45;;;;;;;22.00;15.90;;;;;;;;;;744262;187;919030;-65
2023/08/23 04:13:11;;;;;;;21.20;17.70;;;;;;;;;;741487;187;922312;-65
2023/08/23 04:15:37;;;;;;;22.33;16.00;;;;;;;;;;749081;188;920980;-60
2023/08/23 04:18:03;;;;;;;20.40;16.13;;;;;;;;;;743950;187;818203;-60
2023/08/23 04:20:28;;;;;;;23.73;15.77;;;;;;;;;;744595;187;935698;-66
2023/08/23 04:22:54;;;;;;;19.07;16.47;;;;;;;;;;746070;187;912070;-66
2023/08/23 04:25:20;;;;;;;22.13;16.40;;;;;;;;;;742028;187;927550;-59
2023/08/23 04:27:46;;;;;;;17.93;16.03;;;;;;;;;;740149;188;919478;-60
2023/08/23 04:30:12;;;;;;;17.70;15.80;;;;;;;;;;744629;188;919518;-67
2023/08/23 04:32:38;;;;;;;21.40;16.77;;;;;;;;;;743114;187;920164;-66
2023/08/23 04:35:04;;;;;;;24.30;16.87;;;;;;;;;;744284;187;918054;-66
2023/08/23 04:37:30;;;;;;;24.20;16.40;;;;;;;;;;740721;187;919596;-63
2023/08/23 04:39:56;;;;;;;26.63;16.53;;;;;;;;;;742801;186;918895;-60
2023/08/23 04:42:23;;;;;;;20.23;15.30;;;;;;;;;;743154;187;921049;-61
2023/08/23 04:44:48;;;;;;;22.13;14.70;;;;;;;;;;740429;188;912451;-67
2023/08/23 04:47:14;;;;;;;21.10;14.57;;;;;;;;;;743280;188;923558;-66
2023/08/23 04:49:40;;;;;;;23.43;14.10;;;;;;;;;;738300;187;917730;-61
2023/08/23 04:52:06;;;;;;;21.10;15.77;;;;;;;;;;743213;188;915044;-66
2023/08/23 04:54:32;;;;;;;20.73;15.50;;;;;;;;;;747169;187;916520;-66
2023/08/23 04:56:58;;;;;;;17.60;14.50;;;;;;;;;;745140;187;919549;-61
2023/08/23 04:59:23;;;;;;;26.90;15.67;;;;;;;;;;742075;187;918412;-67
2023/08/23 05:01:49;;;;;;;20.50;14.90;;;;;;;;;;738789;189;817939;-65
2023/08/23 05:04:16;;;;;;;21.37;16.87;;;;;;;;;;746260;188;911472;-65
2023/08/23 05:06:41;;;;;;;16.57;14.97;;;;;;;;;;737166;187;920058;-60
2023/08/23 05:09:07;;;;;;;20.70;14.57;;;;;;;;;;745268;187;919272;-61
2023/08/23 05:11:33;;;;;;;20.40;15.30;;;;;;;;;;744372;188;915311;-65
2023/08/23 05:13:58;;;;;;;27.37;15.60;;;;;;;;;;737787;187;921985;-65
2023/08/23 05:16:24;;;;;;;16.48;14.38;;;;;;;;;;737324;188;918747;-65
2023/08/23 05:18:50;;;;;;;28.37;14.80;;;;;;;;;;751140;187;918397;-65
2023/08/23 05:21:16;;;;;;;17.30;14.70;;;;;;;;;;742277;187;919827;-59
2023/08/23 05:23:42;;;;;;;17.80;15.63;;;;;;;;;;743597;187;916046;-60
2023/08/23 05:26:08;;;;;;;18.45;14.10;;;;;;;;;;742739;187;918945;-61
2023/08/23 05:28:34;;;;;;;19.77;14.60;;;;;;;;;;745950;185;919656;-60
2023/08/23 05:30:59;;;;;;;17.80;13.93;;;;;;;;;;741932;187;816599;-65
2023/08/23 05:33:25;;;;;;;18.20;14.80;;;;;;;;;;740745;187;906563;-67
2023/08/23 05:35:51;;;;;;;19.10;13.57;;;;;;;;;;745108;187;751611;-59
2023/08/23 05:38:19;;;;;;;17.73;14.63;;;;;;;;;;739760;187;1017326;-60
2023/08/23 05:40:45;;;;;;;17.33;14.97;;;;;;;;;;743372;187;919091;-60
2023/08/23 05:43:09;;;;;;;24.60;14.03;;;;;;;;;;745730;187;820981;-59
2023/08/23 05:45:35;;;;;;;20.67;14.17;;;;;;;;;;747861;184;918796;-64
2023/08/23 05:48:01;;;;;;;17.70;14.10;;;;;;;;;;745208;187;920214;-61
2023/08/23 05:50:27;;;;;;;23.03;14.17;;;;;;;;;;744129;187;822184;-65
2023/08/23 05:52:52;;;;;;;18.10;13.73;;;;;;;;;;742941;186;918472;-67
2023/08/23 05:55:18;;;;;;;17.87;14.30;;;;;;;;;;744882;188;920999;-67
2023/08/23 05:57:44;;;;;;;23.53;13.20;;;;;;;;;;742597;187;875186;-67
2023/08/23 06:00:11;;;;;;;15.00;12.63;;;;;;;;;;744320;188;915812;-67
2023/08/23 06:02:37;;;;;;;22.03;13.63;;;;;;;;;;742042;187;920459;-66
2023/08/23 06:05:02;;;;;;;16.30;13.07;;;;;;;;;;737960;188;861065;-66
2023/08/23 06:07:28;;;;;;;20.53;12.97;;;;;;;;;;749917;187;916743;-60
2023/08/23 06:09:54;;;;;;;18.23;12.23;;;;;;;;;;741114;188;919396;-59
2023/08/23 06:12:20;;;;;;;20.47;13.53;;;;;;;;;;741727;188;918952;-60
2023/08/23 06:14:47;;;;;;;16.07;12.10;;;;;;;;;;748440;188;814525;-65
2023/08/23 06:17:12;;;;;;;16.63;12.70;;;;;;;;;;743594;187;915240;-67
2023/08/23 06:19:38;;;;;;;17.40;12.88;;;;;;;;;;741053;187;919107;-65
2023/08/23 06:22:03;;;;;;;15.53;12.67;;;;;;;;;;741208;187;920427;-61
2023/08/23 06:24:29;;;;;;;15.80;12.07;;;;;;;;;;738758;190;918651;-65
2023/08/23 06:26:55;;;;;;;29.13;11.70;;;;;;;;;;744579;187;924282;-65
2023/08/23 06:29:21;;;;;;;14.80;12.87;;;;;;;;;;743526;187;910525;-60
2023/08/23 06:31:47;;;;;;;15.77;12.10;;;;;;;;;;745427;187;917866;-64
2023/08/23 06:34:13;;;;;;;15.87;12.17;;;;;;;;;;740758;187;912521;-66
2023/08/23 06:36:38;;;;;;;16.30;10.88;;;;;;;;;;738863;187;918110;-65
2023/08/23 06:39:04;;;;;;;15.63;10.43;;;;;;;;;;741940;187;911428;-64
2023/08/23 06:41:30;;;;;;;19.67;10.80;;;;;;;;;;740669;187;922408;-59
2023/08/23 06:44:00;;;;;;;18.90;11.20;;;;;;;;;;739667;188;919366;-61
2023/08/23 06:46:26;;;;;;;14.93;10.80;;;;;;;;;;740908;188;920769;-64
2023/08/23 06:48:52;;;;;;;19.53;11.30;;;;;;;;;;746723;187;821710;-60
2023/08/23 06:51:18;;;;;;;20.70;13.30;;;;;;;;;;743925;188;917041;-60
2023/08/23 06:53:44;;;;;;;11.40;9.98;;;;;;;;;;748137;187;618615;-60
2023/08/23 06:56:11;;;;;;;13.97;11.37;;;;;;;;;;750884;187;631186;-59
2023/08/23 06:58:36;;;;;;;10.73;9.50;;;;;;;;;;748227;187;629871;-60
2023/08/23 07:01:01;;;;;;;21.47;11.93;;;;;;;;;;749325;187;626250;-60
2023/08/23 07:03:27;;;;;;;14.70;11.23;;;;;;;;;;749435;187;626127;-59
2023/08/23 07:05:53;;;;;;;11.97;9.70;;;;;;;;;;742936;187;901636;-67
2023/08/23 07:08:19;;;;;;;16.40;11.83;;;;;;;;;;746316;187;885334;-60
2023/08/23 07:10:45;;;;;;;12.40;11.20;;;;;;;;;;739629;187;921298;-65
2023/08/23 07:13:11;;;;;;;17.10;11.50;;;;;;;;;;741208;188;838505;-59
2023/08/23 07:15:38;;;;;;;14.73;11.60;;;;;;;;;;743450;187;816345;-64
2023/08/23 07:18:02;;;;;;;13.40;10.37;;;;;;;;;;745556;187;623729;-60
2023/08/23 07:20:28;;;;;;;14.97;11.03;;;;;;;;;;751079;188;628884;-59
2023/08/23 07:22:54;;;;;;;11.63;9.30;;;;;;;;;;742862;187;624676;-60
2023/08/23 07:25:20;;;;;;;13.40;10.93;;;;;;;;;;743762;187;712841;-59
2023/08/23 07:27:46;;;;;;;11.97;10.70;;;;;;;;;;749256;187;644355;-59
2023/08/23 07:30:12;;;;;;;17.13;10.73;;;;;;;;;;747552;187;633503;-65
2023/08/23 07:32:38;;;;;;;15.30;10.47;;;;;;;;;;749502;187;614414;-60
2023/08/23 07:35:04;;;;;;;13.87;9.87;;;;;;;;;;750618;187;619376;-60
2023/08/23 07:37:30;;;;;;;17.20;10.77;;;;;;;;;;747178;187;636287;-60
2023/08/23 07:39:56;;;;;;;12.13;10.63;;;;;;;;;;745386;187;644265;-59
2023/08/23 07:42:23;;;;;;;23.73;10.50;;;;;;;;;;742102;187;631359;-60
2023/08/23 07:44:47;;;;;;;14.47;9.67;;;;;;;;;;752416;187;619871;-66
2023/08/23 07:47:13;;;;;;;18.30;8.97;;;;;;;;;;743509;187;918022;-65
2023/08/23 07:49:39;;;;;;;12.37;8.70;;;;;;;;;;737918;187;918789;-66
2023/08/23 07:52:05;;;;;;;16.57;10.70;;;;;;;;;;746726;189;625037;-65
2023/08/23 07:54:31;;;;;;;12.40;10.17;;;;;;;;;;741839;188;624704;-65
2023/08/23 07:56:57;;;;;;;14.33;9.33;;;;;;;;;;748569;187;628411;-66
2023/08/23 07:59:23;;;;;;;14.73;10.60;;;;;;;;;;753524;187;622733;-65
2023/08/23 08:01:48;;;;;;;22.93;9.70;;;;;;;;;;745916;187;633410;-67
2023/08/23 08:04:14;;;;;;;17.30;8.90;;;;;;;;;;745451;187;919523;-64
2023/08/23 08:06:40;;;;;;;13.10;8.70;;;;;;;;;;740401;188;918862;-65
2023/08/23 08:09:06;;;;;;;9.07;7.67;;;;;;;;;;751206;182;918406;-59
2023/08/23 08:11:32;;;;;;;15.97;8.70;;;;;;;;;;747483;188;918949;-66
2023/08/23 08:13:58;;;;;;;12.47;9.43;;;;;;;;;;743194;187;916397;-60
2023/08/23 08:16:23;;;;;;;14.70;9.63;;;;;;;;;;748944;187;816503;-60
2023/08/23 08:18:49;;;;;;;11.77;9.57;;;;;;;;;;737835;188;934184;-66
2023/08/23 08:21:17;;;;;;;9.83;7.67;;;;;;;;;;740873;188;918339;-59
2023/08/23 08:23:41;;;;;;;14.70;10.03;;;;;;;;;;748823;187;918349;-66
2023/08/23 08:26:07;;;;;;;15.30;9.90;;;;;;;;;;742175;187;919403;-60
2023/08/23 08:28:33;;;;;;;13.00;9.20;;;;;;;;;;740005;187;919446;-61
2023/08/23 08:30:59;;;;;;;16.53;11.30;;;;;;;;;;743046;187;920817;-61
2023/08/23 08:33:25;;;;;;;10.80;9.63;;;;;;;;;;735865;189;919444;-67
2023/08/23 08:35:51;;;;;;;11.70;10.00;;;;;;;;;;743943;188;920771;-60
2023/08/23 08:38:16;;;;;;;10.90;9.53;;;;;;;;;;740593;186;917678;-59
2023/08/23 08:40:42;;;;;;;10.97;8.80;;;;;;;;;;747804;187;818372;-60
2023/08/23 08:43:08;;;;;;;13.50;9.63;;;;;;;;;;736331;188;919533;-65
2023/08/23 08:45:34;;;;;;;15.43;9.70;;;;;;;;;;735580;187;919063;-65
2023/08/23 08:48:00;;;;;;;11.73;10.05;;;;;;;;;;747543;187;920327;-65
2023/08/23 08:50:26;;;;;;;12.00;9.70;;;;;;;;;;740973;188;919146;-60
2023/08/23 08:52:52;;;;;;;11.27;9.70;;;;;;;;;;740549;188;916328;-59
2023/08/23 08:55:17;;;;;;;12.33;10.37;;;;;;;;;;744698;188;918069;-60
2023/08/23 08:57:43;;;;;;;17.00;9.27;;;;;;;;;;740621;187;919006;-61
2023/08/23 09:00:10;;;;;;;10.87;8.47;;;;;;;;;;741729;187;919723;-60
2023/08/23 09:02:35;;;;;;;12.97;9.60;;;;;;;;;;736456;188;922872;-65
2023/08/23 09:05:02;;;;;;;13.50;9.37;;;;;;;;;;742657;187;848487;-60
2023/08/23 09:07:27;;;;;;;12.67;10.10;;;;;;;;;;743344;187;825687;-67
2023/08/23 09:09:53;;;;;;;11.75;10.32;;;;;;;;;;740658;187;926233;-60
2023/08/23 09:12:19;;;;;;;13.53;10.10;;;;;;;;;;743504;188;870114;-61
2023/08/23 09:14:45;;;;;;;13.23;9.50;;;;;;;;;;740809;188;820860;-60
2023/08/23 09:17:11;;;;;;;15.03;9.40;;;;;;;;;;738392;187;915489;-67
2023/08/23 09:19:36;;;;;;;13.67;11.20;;;;;;;;;;746810;187;915129;-68
2023/08/23 09:22:02;;;;;;;14.53;10.40;;;;;;;;;;740661;187;915602;-60
2023/08/23 09:24:28;;;;;;;15.90;9.98;;;;;;;;;;741960;187;915769;-67
2023/08/23 09:26:54;;;;;;;12.23;9.17;;;;;;;;;;745588;188;918982;-67
2023/08/23 09:29:20;;;;;;;13.80;10.53;;;;;;;;;;747163;184;848414;-61
2023/08/23 09:31:46;;;;;;;16.97;10.20;;;;;;;;;;741378;188;911422;-68
2023/08/23 09:34:12;;;;;;;12.40;9.70;;;;;;;;;;746534;187;946114;-66
2023/08/23 09:36:40;;;;;;;17.00;10.03;;;;;;;;;;742781;187;821149;-70
2023/08/23 09:39:07;;;;;;;10.73;9.33;;;;;;;;;;736736;187;918916;-61
2023/08/23 09:41:32;;;;;;;13.77;9.43;;;;;;;;;;743096;187;921499;-61
2023/08/23 09:43:59;;;;;;;18.23;11.27;;;;;;;;;;746451;187;917549;-67
2023/08/23 09:46:24;;;;;;;10.23;9.13;;;;;;;;;;737878;187;923344;-68
2023/08/23 09:48:50;;;;;;;13.33;9.17;;;;;;;;;;742140;187;918765;-62
2023/08/23 09:51:15;;;;;;;14.43;10.40;;;;;;;;;;742245;187;917942;-66
2023/08/23 09:53:41;;;;;;;10.37;9.27;;;;;;;;;;743178;186;919401;-66
2023/08/23 09:56:07;;;;;;;16.90;10.20;;;;;;;;;;738484;187;920414;-61
2023/08/23 09:58:33;;;;;;;11.33;8.57;;;;;;;;;;743256;187;918864;-61
2023/08/23 10:00:59;;;;;;;14.43;9.48;;;;;;;;;;742406;188;902939;-67
2023/08/23 10:03:25;;;;;;;24.03;9.80;;;;;;;;;;739456;189;918683;-61
2023/08/23 10:05:50;;;;;;;11.63;8.93;;;;;;;;;;739883;187;917904;-60
2023/08/23 10:08:16;;;;;;;13.33;9.60;;;;;;;;;;745815;187;922108;-59
2023/08/23 10:10:42;;;;;;;11.13;9.50;;;;;;;;;;740326;187;919409;-60
2023/08/23 10:13:08;;;;;;;10.83;8.80;;;;;;;;;;742779;187;918459;-66
2023/08/23 10:15:35;;;;;;;12.65;8.55;;;;;;;;;;741644;188;923322;-65
2023/08/23 10:18:01;;;;;;;14.40;8.37;;;;;;;;;;743611;190;903051;-62
2023/08/23 10:20:27;;;;;;;10.47;8.23;;;;;;;;;;743110;187;918978;-62
2023/08/23 10:22:54;;;;;;;11.17;8.33;;;;;;;;;;742288;188;911164;-65
2023/08/23 10:25:19;;;;;;;13.03;8.37;;;;;;;;;;744720;187;919376;-71
2023/08/23 10:27:46;;;;;;;11.87;9.30;;;;;;;;;;740137;187;920130;-71
2023/08/23 10:30:12;;;;;;;12.37;9.73;;;;;;;;;;742096;188;809261;-69
2023/08/23 10:32:38;;;;;;;10.97;7.70;;;;;;;;;;749085;187;858268;-67
2023/08/23 10:35:04;;;;;;;9.90;8.40;;;;;;;;;;741952;187;929051;-68
2023/08/23 10:37:30;;;;;;;20.60;8.13;;;;;;;;;;738868;187;884694;-68
2023/08/23 10:39:56;;;;;;;18.20;8.27;;;;;;;;;;742724;187;918746;-66
2023/08/23 10:42:22;;;;;;;9.37;7.40;;;;;;;;;;743893;187;916920;-68
2023/08/23 10:44:54;;;;;;;11.43;9.00;;;;;;;;;;744248;186;904703;-59
2023/08/23 10:47:19;;;;;;;9.97;6.90;;;;;;;;;;741955;186;919418;-58
2023/08/23 10:49:46;;;;;;;8.93;6.30;;;;;;;;;;745896;187;823652;-59
2023/08/23 10:52:11;;;;;;;8.53;6.70;;;;;;;;;;741314;188;919451;-58
2023/08/23 10:54:37;;;;;;;9.40;7.63;;;;;;;;;;742064;187;886580;-59
2023/08/23 10:57:03;;;;;;;11.73;6.85;;;;;;;;;;747474;187;856022;-59
2023/08/23 10:59:29;;;;;;;7.63;6.77;;;;;;;;;;744047;187;817353;-58
2023/08/23 11:01:55;;;;;;;17.00;7.03;;;;;;;;;;742623;187;918777;-68
2023/08/23 11:04:21;;;;;;;15.00;7.13;;;;;;;;;;740573;187;918126;-59
2023/08/23 11:06:47;;;;;;;10.80;6.90;;;;;;;;;;747578;188;918222;-70
2023/08/23 11:09:13;;;;;;;11.97;5.73;;;;;;;;;;740726;187;897108;-70
2023/08/23 11:11:39;;;;;;;8.27;6.33;;;;;;;;;;740072;188;943644;-68
2023/08/23 11:14:04;;;;;;;8.93;6.80;;;;;;;;;;747185;187;919348;-59
2023/08/23 11:16:30;;;;;;;10.33;7.20;;;;;;;;;;740679;187;919814;-70
2023/08/23 11:18:56;;;;;;;12.17;7.63;;;;;;;;;;741327;187;919995;-58
2023/08/23 11:21:22;;;;;;;8.03;5.40;;;;;;;;;;745728;188;851633;-69
2023/08/23 11:23:48;;;;;;;11.53;7.63;;;;;;;;;;743933;188;816409;-59
2023/08/23 11:26:14;;;;;;;10.80;6.80;;;;;;;;;;746692;188;684102;-58
2023/08/23 11:28:40;;;;;;;7.73;6.93;;;;;;;;;;741197;188;817674;-59
2023/08/23 11:31:06;;;;;;;8.60;6.60;;;;;;;;;;736325;188;918137;-68
2023/08/23 11:33:31;;;;;;;9.43;6.67;;;;;;;;;;740199;188;928100;-60
2023/08/23 11:35:57;;;;;;;10.38;5.65;;;;;;;;;;740170;187;917790;-67
2023/08/23 11:38:30;;;;;;;13.40;6.97;;;;;;;;;;748072;187;816315;-68
2023/08/23 11:40:57;;;;;;;9.93;6.47;;;;;;;;;;743899;187;920364;-68
2023/08/23 11:43:24;;;;;;;8.80;6.47;;;;;;;;;;745397;187;926057;-58
2023/08/23 11:45:50;;;;;;;7.40;6.47;;;;;;;;;;746052;186;919652;-67
2023/08/23 11:48:14;;;;;;;9.27;6.37;;;;;;;;;;746518;188;817451;-68
2023/08/23 11:50:40;;;;;;;7.30;5.97;;;;;;;;;;743601;187;822370;-67
2023/08/23 11:53:06;;;;;;;7.00;5.93;;;;;;;;;;743581;188;919112;-59
2023/08/23 11:55:32;;;;;;;8.77;5.60;;;;;;;;;;752603;187;918951;-58
2023/08/23 11:57:58;;;;;;;12.77;6.07;;;;;;;;;;742123;187;918673;-71
2023/08/23 12:00:24;;;;;;;9.17;6.30;;;;;;;;;;740323;187;920554;-69
2023/08/23 12:02:50;;;;;;;7.00;6.37;;;;;;;;;;746622;187;816489;-67
2023/08/23 12:05:16;;;;;;;8.27;6.37;;;;;;;;;;742447;188;817440;-58
2023/08/23 12:07:41;;;;;;;11.00;6.40;;;;;;;;;;744750;187;920733;-58
2023/08/23 12:10:08;;;;;;;8.63;5.70;;;;;;;;;;739538;187;917547;-59
2023/08/23 12:12:34;;;;;;;12.10;6.67;;;;;;;;;;741331;189;900129;-58
2023/08/23 12:15:00;;;;;;;8.97;5.70;;;;;;;;;;740012;188;923911;-70
2023/08/23 12:17:26;;;;;;;6.60;5.33;;;;;;;;;;740070;188;866701;-67
2023/08/23 12:19:52;;;;;;;6.80;5.07;;;;;;;;;;748423;188;919329;-58
2023/08/23 12:22:18;;;;;;;10.10;5.90;;;;;;;;;;743318;187;921763;-59
2023/08/23 12:24:43;;;;;;;9.93;7.23;;;;;;;;;;743090;187;919341;-66
2023/08/23 12:27:09;;;;;;;8.20;6.10;;;;;;;;;;744130;187;920218;-58
2023/08/23 12:29:37;;;;;;;7.90;5.83;;;;;;;;;;741068;187;930431;-67
2023/08/23 12:32:01;;;;;;;7.43;6.27;;;;;;;;;;740252;187;920057;-59
2023/08/23 12:34:27;;;;;;;8.13;6.90;;;;;;;;;;745522;187;671950;-68
2023/08/23 12:36:53;;;;;;;9.70;5.90;;;;;;;;;;755847;183;624146;-68
2023/08/23 12:39:19;;;;;;;16.40;6.90;;;;;;;;;;743527;187;622989;-68
2023/08/23 12:41:44;;;;;;;10.83;6.73;;;;;;;;;;741385;187;909476;-66
2023/08/23 12:44:10;;;;;;;7.40;6.03;;;;;;;;;;749901;187;813857;-59
2023/08/23 12:46:36;;;;;;;7.87;6.47;;;;;;;;;;738407;188;914477;-60
2023/08/23 12:49:03;;;;;;;7.20;6.00;;;;;;;;;;745426;187;871244;-67
2023/08/23 12:51:28;;;;;;;10.10;5.93;;;;;;;;;;743296;188;900565;-65
2023/08/23 12:53:54;;;;;;;7.57;6.07;;;;;;;;;;742336;186;919265;-67
2023/08/23 12:56:20;;;;;;;8.70;5.90;;;;;;;;;;747423;187;619122;-59
2023/08/23 12:58:46;;;;;;;13.97;6.50;;;;;;;;;;755127;187;619946;-59
2023/08/23 13:01:11;;;;;;;8.90;6.07;;;;;;;;;;744716;187;623348;-67
2023/08/23 13:03:37;;;;;;;7.20;6.23;;;;;;;;;;741821;187;811214;-59
2023/08/23 13:06:03;;;;;;;9.00;6.20;;;;;;;;;;742087;187;922722;-66
2023/08/23 13:08:29;;;;;;;10.50;5.90;;;;;;;;;;749577;187;786583;-58
2023/08/23 13:10:55;;;;;;;10.17;6.30;;;;;;;;;;747158;187;902960;-58
2023/08/23 13:13:20;;;;;;;7.00;5.57;;;;;;;;;;739435;188;951052;-58
2023/08/23 13:15:46;;;;;;;8.53;6.10;;;;;;;;;;741752;187;919890;-59
2023/08/23 13:18:12;;;;;;;8.80;6.30;;;;;;;;;;742740;188;915531;-59
2023/08/23 13:20:38;;;;;;;7.50;6.47;;;;;;;;;;742190;188;913135;-59
2023/08/23 13:23:04;;;;;;;8.23;6.13;;;;;;;;;;747240;187;901099;-59
2023/08/23 13:25:30;;;;;;;10.43;6.90;;;;;;;;;;743333;187;916872;-66
2023/08/23 13:27:56;;;;;;;7.07;5.53;;;;;;;;;;742693;188;915389;-67
2023/08/23 13:30:21;;;;;;;8.73;6.40;;;;;;;;;;744974;187;913035;-59
2023/08/23 13:32:47;;;;;;;13.50;7.30;;;;;;;;;;747473;185;691778;-58
2023/08/23 13:35:13;;;;;;;8.47;5.80;;;;;;;;;;741867;187;919689;-60
2023/08/23 13:37:39;;;;;;;8.60;7.30;;;;;;;;;;743767;187;914797;-58
2023/08/23 13:40:06;;;;;;;9.20;5.90;;;;;;;;;;747637;187;819271;-67
2023/08/23 13:42:31;;;;;;;9.13;7.07;;;;;;;;;;737689;188;819932;-66
2023/08/23 13:44:57;;;;;;;6.90;6.20;;;;;;;;;;739686;187;922078;-68
2023/08/23 13:47:23;;;;;;;9.30;6.00;;;;;;;;;;745544;187;805010;-66
2023/08/23 13:49:49;;;;;;;12.80;6.43;;;;;;;;;;743681;187;840463;-66
2023/08/23 13:52:15;;;;;;;9.68;7.18;;;;;;;;;;744404;188;710398;-68
2023/08/23 13:54:41;;;;;;;10.10;7.73;;;;;;;;;;746073;187;901859;-66
2023/08/23 13:57:07;;;;;;;8.40;6.70;;;;;;;;;;747113;186;816535;-58
2023/08/23 13:59:33;;;;;;;8.50;7.03;;;;;;;;;;740664;188;921312;-66
2023/08/23 14:01:59;;;;;;;13.23;7.57;;;;;;;;;;741250;189;920414;-67
2023/08/23 14:04:25;;;;;;;13.63;6.33;;;;;;;;;;747576;188;919070;-66